sensor_id;sensor_type;location;lat;lon;timestamp;P1;durP1;ratioP1;P2;durP2;ratioP2
48207;SDS011;33997;53.278;9.708;2023-04-24T00:01:15;15.13;;;11.68;;
48207;SDS011;33997;53.278;9.708;2023-04-24T00:03:41;18.67;;;12.18;;
48207;SDS011;33997;53.278;9.708;2023-04-24T00:06:07;15.98;;;11.55;;
48207;SDS011;33997;53.278;9.708;2023-04-24T00:08:33;15.57;;;11.77;;
48207;SDS011;33997;53.278;9.708;2023-04-24T00:10:59;13.70;;;11.77;;
48207;SDS011;33997;53.278;9.708;2023-04-24T00:13:25;17.45;;;11.30;;
48207;SDS011;33997;53.278;9.708;2023-04-24T00:15:51;18.67;;;12.82;;
48207;SDS011;33997;53.278;9.708;2023-04-24T00:18:16;14.23;;;11.18;;
48207;SDS011;33997;53.278;9.708;2023-04-24T00:20:42;16.33;;;11.10;;
48207;SDS011;33997;53.278;9.708;2023-04-24T00:23:08;15.98;;;11.00;;
48207;SDS011;33997;53.278;9.708;2023-04-24T00:25:34;13.60;;;11.32;;
48207;SDS011;33997;53.278;9.708;2023-04-24T00:28:00;12.82;;;9.93;;
48207;SDS011;33997;53.278;9.708;2023-04-24T00:30:25;14.48;;;10.90;;
48207;SDS011;33997;53.278;9.708;2023-04-24T00:32:51;15.63;;;10.25;;
48207;SDS011;33997;53.278;9.708;2023-04-24T00:35:16;11.85;;;8.93;;
48207;SDS011;33997;53.278;9.708;2023-04-24T00:37:42;13.70;;;9.43;;
48207;SDS011;33997;53.278;9.708;2023-04-24T00:40:07;12.60;;;9.50;;
48207;SDS011;33997;53.278;9.708;2023-04-24T00:42:33;11.55;;;8.25;;
48207;SDS011;33997;53.278;9.708;2023-04-24T00:44:59;11.52;;;7.85;;
48207;SDS011;33997;53.278;9.708;2023-04-24T00:47:26;11.95;;;8.18;;
48207;SDS011;33997;53.278;9.708;2023-04-24T00:49:52;11.43;;;7.97;;
48207;SDS011;33997;53.278;9.708;2023-04-24T00:52:18;9.15;;;6.78;;
48207;SDS011;33997;53.278;9.708;2023-04-24T00:54:44;9.77;;;7.28;;
48207;SDS011;33997;53.278;9.708;2023-04-24T00:57:10;9.63;;;6.90;;
48207;SDS011;33997;53.278;9.708;2023-04-24T00:59:35;9.35;;;6.40;;
48207;SDS011;33997;53.278;9.708;2023-04-24T01:02:01;10.27;;;6.82;;
48207;SDS011;33997;53.278;9.708;2023-04-24T01:04:27;10.82;;;6.70;;
48207;SDS011;33997;53.278;9.708;2023-04-24T01:06:53;7.57;;;5.85;;
48207;SDS011;33997;53.278;9.708;2023-04-24T01:09:21;9.68;;;5.65;;
48207;SDS011;33997;53.278;9.708;2023-04-24T01:11:48;7.93;;;5.57;;
48207;SDS011;33997;53.278;9.708;2023-04-24T01:14:14;7.65;;;5.60;;
48207;SDS011;33997;53.278;9.708;2023-04-24T01:16:40;6.60;;;4.72;;
48207;SDS011;33997;53.278;9.708;2023-04-24T01:19:06;7.40;;;4.85;;
48207;SDS011;33997;53.278;9.708;2023-04-24T01:21:32;6.85;;;4.90;;
48207;SDS011;33997;53.278;9.708;2023-04-24T01:24:02;7.50;;;4.27;;
48207;SDS011;33997;53.278;9.708;2023-04-24T01:26:28;7.00;;;4.38;;
48207;SDS011;33997;53.278;9.708;2023-04-24T01:28:54;7.68;;;4.15;;
48207;SDS011;33997;53.278;9.708;2023-04-24T01:31:20;8.27;;;4.35;;
48207;SDS011;33997;53.278;9.708;2023-04-24T01:33:46;5.65;;;3.70;;
48207;SDS011;33997;53.278;9.708;2023-04-24T01:36:12;5.85;;;4.20;;
48207;SDS011;33997;53.278;9.708;2023-04-24T01:38:39;6.55;;;4.25;;
48207;SDS011;33997;53.278;9.708;2023-04-24T01:41:04;6.85;;;4.40;;
48207;SDS011;33997;53.278;9.708;2023-04-24T01:43:30;5.40;;;3.97;;
48207;SDS011;33997;53.278;9.708;2023-04-24T01:45:56;8.57;;;4.30;;
48207;SDS011;33997;53.278;9.708;2023-04-24T01:48:22;5.65;;;4.03;;
48207;SDS011;33997;53.278;9.708;2023-04-24T01:50:47;6.00;;;3.78;;
48207;SDS011;33997;53.278;9.708;2023-04-24T01:53:13;4.78;;;3.38;;
48207;SDS011;33997;53.278;9.708;2023-04-24T01:55:38;5.57;;;4.07;;
48207;SDS011;33997;53.278;9.708;2023-04-24T01:58:05;5.90;;;3.80;;
48207;SDS011;33997;53.278;9.708;2023-04-24T02:00:30;5.35;;;3.78;;
48207;SDS011;33997;53.278;9.708;2023-04-24T02:02:56;5.55;;;3.80;;
48207;SDS011;33997;53.278;9.708;2023-04-24T02:05:21;8.23;;;4.03;;
48207;SDS011;33997;53.278;9.708;2023-04-24T02:07:47;5.00;;;3.40;;
48207;SDS011;33997;53.278;9.708;2023-04-24T02:10:12;6.95;;;3.88;;
48207;SDS011;33997;53.278;9.708;2023-04-24T02:12:38;5.55;;;3.67;;
48207;SDS011;33997;53.278;9.708;2023-04-24T02:15:03;7.75;;;3.40;;
48207;SDS011;33997;53.278;9.708;2023-04-24T02:17:30;4.90;;;3.13;;
48207;SDS011;33997;53.278;9.708;2023-04-24T02:19:56;6.20;;;3.38;;
48207;SDS011;33997;53.278;9.708;2023-04-24T02:22:21;5.68;;;3.40;;
48207;SDS011;33997;53.278;9.708;2023-04-24T02:24:47;4.32;;;3.10;;
48207;SDS011;33997;53.278;9.708;2023-04-24T02:27:12;6.70;;;3.60;;
48207;SDS011;33997;53.278;9.708;2023-04-24T02:29:38;4.55;;;3.00;;
48207;SDS011;33997;53.278;9.708;2023-04-24T02:32:03;4.20;;;2.65;;
48207;SDS011;33997;53.278;9.708;2023-04-24T02:34:29;5.05;;;3.10;;
48207;SDS011;33997;53.278;9.708;2023-04-24T02:36:55;4.93;;;2.80;;
48207;SDS011;33997;53.278;9.708;2023-04-24T02:39:20;4.10;;;2.58;;
48207;SDS011;33997;53.278;9.708;2023-04-24T02:41:46;3.65;;;2.60;;
48207;SDS011;33997;53.278;9.708;2023-04-24T02:44:11;4.22;;;2.63;;
48207;SDS011;33997;53.278;9.708;2023-04-24T02:46:37;3.80;;;2.67;;
48207;SDS011;33997;53.278;9.708;2023-04-24T02:49:02;4.28;;;2.30;;
48207;SDS011;33997;53.278;9.708;2023-04-24T02:51:28;4.72;;;2.58;;
48207;SDS011;33997;53.278;9.708;2023-04-24T02:53:54;4.25;;;2.60;;
48207;SDS011;33997;53.278;9.708;2023-04-24T02:56:20;3.95;;;2.55;;
48207;SDS011;33997;53.278;9.708;2023-04-24T02:58:45;4.03;;;2.78;;
48207;SDS011;33997;53.278;9.708;2023-04-24T03:01:11;7.03;;;2.90;;
48207;SDS011;33997;53.278;9.708;2023-04-24T03:03:37;4.53;;;2.80;;
48207;SDS011;33997;53.278;9.708;2023-04-24T03:06:03;4.05;;;2.70;;
48207;SDS011;33997;53.278;9.708;2023-04-24T03:08:30;3.97;;;2.63;;
48207;SDS011;33997;53.278;9.708;2023-04-24T03:10:56;4.05;;;2.88;;
48207;SDS011;33997;53.278;9.708;2023-04-24T03:13:22;3.55;;;2.65;;
48207;SDS011;33997;53.278;9.708;2023-04-24T03:15:47;3.40;;;2.35;;
48207;SDS011;33997;53.278;9.708;2023-04-24T03:18:13;4.10;;;2.58;;
48207;SDS011;33997;53.278;9.708;2023-04-24T03:20:45;2.92;;;2.38;;
48207;SDS011;33997;53.278;9.708;2023-04-24T03:23:11;6.78;;;2.60;;
48207;SDS011;33997;53.278;9.708;2023-04-24T03:25:37;3.97;;;2.63;;
48207;SDS011;33997;53.278;9.708;2023-04-24T03:28:02;3.97;;;2.60;;
48207;SDS011;33997;53.278;9.708;2023-04-24T03:30:27;4.90;;;2.08;;
48207;SDS011;33997;53.278;9.708;2023-04-24T03:32:53;3.50;;;2.53;;
48207;SDS011;33997;53.278;9.708;2023-04-24T03:35:18;4.78;;;2.55;;
48207;SDS011;33997;53.278;9.708;2023-04-24T03:37:44;2.97;;;2.08;;
48207;SDS011;33997;53.278;9.708;2023-04-24T03:40:10;3.58;;;2.47;;
48207;SDS011;33997;53.278;9.708;2023-04-24T03:42:35;4.05;;;2.20;;
48207;SDS011;33997;53.278;9.708;2023-04-24T03:45:01;3.28;;;2.47;;
48207;SDS011;33997;53.278;9.708;2023-04-24T03:47:26;4.93;;;2.63;;
48207;SDS011;33997;53.278;9.708;2023-04-24T03:49:52;2.13;;;1.85;;
48207;SDS011;33997;53.278;9.708;2023-04-24T03:52:19;3.47;;;2.60;;
48207;SDS011;33997;53.278;9.708;2023-04-24T03:54:44;5.47;;;2.55;;
48207;SDS011;33997;53.278;9.708;2023-04-24T03:57:10;3.28;;;2.33;;
48207;SDS011;33997;53.278;9.708;2023-04-24T03:59:35;3.08;;;1.90;;
48207;SDS011;33997;53.278;9.708;2023-04-24T04:02:01;3.35;;;2.08;;
48207;SDS011;33997;53.278;9.708;2023-04-24T04:04:26;3.42;;;2.10;;
48207;SDS011;33997;53.278;9.708;2023-04-24T04:06:52;2.40;;;1.98;;
48207;SDS011;33997;53.278;9.708;2023-04-24T04:09:18;2.95;;;2.20;;
48207;SDS011;33997;53.278;9.708;2023-04-24T04:11:43;4.10;;;1.92;;
48207;SDS011;33997;53.278;9.708;2023-04-24T04:14:09;4.63;;;2.25;;
48207;SDS011;33997;53.278;9.708;2023-04-24T04:16:34;3.05;;;2.05;;
48207;SDS011;33997;53.278;9.708;2023-04-24T04:19:01;2.78;;;2.13;;
48207;SDS011;33997;53.278;9.708;2023-04-24T04:21:27;5.78;;;2.33;;
48207;SDS011;33997;53.278;9.708;2023-04-24T04:23:54;3.22;;;1.80;;
48207;SDS011;33997;53.278;9.708;2023-04-24T04:26:19;2.55;;;1.70;;
48207;SDS011;33997;53.278;9.708;2023-04-24T04:28:46;2.83;;;1.77;;
48207;SDS011;33997;53.278;9.708;2023-04-24T04:31:28;2.58;;;1.85;;
48207;SDS011;33997;53.278;9.708;2023-04-24T04:33:54;2.97;;;1.80;;
48207;SDS011;33997;53.278;9.708;2023-04-24T04:36:19;3.47;;;2.20;;
48207;SDS011;33997;53.278;9.708;2023-04-24T04:38:45;3.28;;;2.00;;
48207;SDS011;33997;53.278;9.708;2023-04-24T04:41:10;6.10;;;1.85;;
48207;SDS011;33997;53.278;9.708;2023-04-24T04:43:36;4.68;;;2.03;;
48207;SDS011;33997;53.278;9.708;2023-04-24T04:46:03;2.88;;;1.80;;
48207;SDS011;33997;53.278;9.708;2023-04-24T04:48:28;2.55;;;1.80;;
48207;SDS011;33997;53.278;9.708;2023-04-24T04:50:56;2.08;;;1.58;;
48207;SDS011;33997;53.278;9.708;2023-04-24T04:53:22;5.25;;;2.13;;
48207;SDS011;33997;53.278;9.708;2023-04-24T04:55:47;2.28;;;1.80;;
48207;SDS011;33997;53.278;9.708;2023-04-24T04:58:13;2.10;;;1.50;;
48207;SDS011;33997;53.278;9.708;2023-04-24T05:00:38;2.08;;;1.45;;
48207;SDS011;33997;53.278;9.708;2023-04-24T05:03:04;1.95;;;1.30;;
48207;SDS011;33997;53.278;9.708;2023-04-24T05:05:30;4.15;;;2.00;;
48207;SDS011;33997;53.278;9.708;2023-04-24T05:07:55;3.28;;;1.50;;
48207;SDS011;33997;53.278;9.708;2023-04-24T05:10:21;1.50;;;1.20;;
48207;SDS011;33997;53.278;9.708;2023-04-24T05:12:46;2.72;;;1.45;;
48207;SDS011;33997;53.278;9.708;2023-04-24T05:15:11;1.15;;;1.02;;
48207;SDS011;33997;53.278;9.708;2023-04-24T05:17:37;2.65;;;1.50;;
48207;SDS011;33997;53.278;9.708;2023-04-24T05:20:04;2.05;;;1.33;;
48207;SDS011;33997;53.278;9.708;2023-04-24T05:22:31;1.60;;;1.30;;
48207;SDS011;33997;53.278;9.708;2023-04-24T05:24:56;2.65;;;1.55;;
48207;SDS011;33997;53.278;9.708;2023-04-24T05:27:22;1.75;;;1.15;;
48207;SDS011;33997;53.278;9.708;2023-04-24T05:29:48;2.72;;;1.40;;
48207;SDS011;33997;53.278;9.708;2023-04-24T05:32:13;2.38;;;1.23;;
48207;SDS011;33997;53.278;9.708;2023-04-24T05:34:39;1.67;;;1.30;;
48207;SDS011;33997;53.278;9.708;2023-04-24T05:37:04;2.65;;;1.77;;
48207;SDS011;33997;53.278;9.708;2023-04-24T05:39:33;2.67;;;1.70;;
48207;SDS011;33997;53.278;9.708;2023-04-24T05:42:00;2.40;;;1.67;;
48207;SDS011;33997;53.278;9.708;2023-04-24T05:44:26;3.50;;;1.85;;
48207;SDS011;33997;53.278;9.708;2023-04-24T05:46:51;4.32;;;2.25;;
48207;SDS011;33997;53.278;9.708;2023-04-24T05:49:17;4.10;;;1.70;;
48207;SDS011;33997;53.278;9.708;2023-04-24T05:51:42;3.97;;;2.10;;
48207;SDS011;33997;53.278;9.708;2023-04-24T05:54:08;3.65;;;2.08;;
48207;SDS011;33997;53.278;9.708;2023-04-24T05:56:33;4.30;;;2.20;;
48207;SDS011;33997;53.278;9.708;2023-04-24T05:58:59;2.90;;;1.92;;
48207;SDS011;33997;53.278;9.708;2023-04-24T06:01:24;3.17;;;2.00;;
48207;SDS011;33997;53.278;9.708;2023-04-24T06:03:50;3.22;;;2.03;;
48207;SDS011;33997;53.278;9.708;2023-04-24T06:06:15;4.40;;;2.50;;
48207;SDS011;33997;53.278;9.708;2023-04-24T06:08:41;4.45;;;2.30;;
48207;SDS011;33997;53.278;9.708;2023-04-24T06:11:08;5.22;;;2.45;;
48207;SDS011;33997;53.278;9.708;2023-04-24T06:13:34;4.07;;;2.78;;
48207;SDS011;33997;53.278;9.708;2023-04-24T06:16:00;3.28;;;2.35;;
48207;SDS011;33997;53.278;9.708;2023-04-24T06:18:25;5.85;;;2.50;;
48207;SDS011;33997;53.278;9.708;2023-04-24T06:20:51;4.53;;;2.42;;
48207;SDS011;33997;53.278;9.708;2023-04-24T06:23:16;3.90;;;2.53;;
48207;SDS011;33997;53.278;9.708;2023-04-24T06:25:42;6.63;;;2.80;;
48207;SDS011;33997;53.278;9.708;2023-04-24T06:28:07;4.88;;;2.58;;
48207;SDS011;33997;53.278;9.708;2023-04-24T06:30:33;4.22;;;2.75;;
48207;SDS011;33997;53.278;9.708;2023-04-24T06:32:58;4.60;;;3.00;;
48207;SDS011;33997;53.278;9.708;2023-04-24T06:35:24;4.78;;;3.25;;
48207;SDS011;33997;53.278;9.708;2023-04-24T06:37:51;7.47;;;3.40;;
48207;SDS011;33997;53.278;9.708;2023-04-24T06:40:16;6.05;;;3.55;;
48207;SDS011;33997;53.278;9.708;2023-04-24T06:42:43;6.60;;;3.35;;
48207;SDS011;33997;53.278;9.708;2023-04-24T06:45:09;5.20;;;3.28;;
48207;SDS011;33997;53.278;9.708;2023-04-24T06:47:35;5.50;;;3.67;;
48207;SDS011;33997;53.278;9.708;2023-04-24T06:50:00;7.30;;;3.65;;
48207;SDS011;33997;53.278;9.708;2023-04-24T06:52:26;5.07;;;3.55;;
48207;SDS011;33997;53.278;9.708;2023-04-24T06:54:51;6.30;;;3.50;;
48207;SDS011;33997;53.278;9.708;2023-04-24T06:57:17;4.97;;;3.40;;
48207;SDS011;33997;53.278;9.708;2023-04-24T06:59:43;6.57;;;3.88;;
48207;SDS011;33997;53.278;9.708;2023-04-24T07:02:08;5.45;;;3.90;;
48207;SDS011;33997;53.278;9.708;2023-04-24T07:04:34;5.55;;;4.13;;
48207;SDS011;33997;53.278;9.708;2023-04-24T07:06:59;5.88;;;3.90;;
48207;SDS011;33997;53.278;9.708;2023-04-24T07:09:26;8.30;;;4.70;;
48207;SDS011;33997;53.278;9.708;2023-04-24T07:11:52;6.65;;;3.75;;
48207;SDS011;33997;53.278;9.708;2023-04-24T07:14:18;5.82;;;4.10;;
48207;SDS011;33997;53.278;9.708;2023-04-24T07:16:43;6.53;;;4.30;;
48207;SDS011;33997;53.278;9.708;2023-04-24T07:19:10;8.02;;;4.55;;
48207;SDS011;33997;53.278;9.708;2023-04-24T07:21:35;6.40;;;4.32;;
48207;SDS011;33997;53.278;9.708;2023-04-24T07:24:01;5.75;;;4.28;;
48207;SDS011;33997;53.278;9.708;2023-04-24T07:26:27;7.65;;;5.03;;
48207;SDS011;33997;53.278;9.708;2023-04-24T07:28:54;5.82;;;4.20;;
48207;SDS011;33997;53.278;9.708;2023-04-24T07:31:20;6.97;;;4.85;;
48207;SDS011;33997;53.278;9.708;2023-04-24T07:33:45;6.22;;;4.70;;
48207;SDS011;33997;53.278;9.708;2023-04-24T07:36:11;6.00;;;4.50;;
48207;SDS011;33997;53.278;9.708;2023-04-24T07:38:40;6.78;;;4.22;;
48207;SDS011;33997;53.278;9.708;2023-04-24T07:41:09;6.25;;;4.78;;
48207;SDS011;33997;53.278;9.708;2023-04-24T07:43:35;6.40;;;4.47;;
48207;SDS011;33997;53.278;9.708;2023-04-24T07:46:00;6.03;;;4.57;;
48207;SDS011;33997;53.278;9.708;2023-04-24T07:48:26;6.40;;;4.90;;
48207;SDS011;33997;53.278;9.708;2023-04-24T07:50:52;7.47;;;5.53;;
48207;SDS011;33997;53.278;9.708;2023-04-24T07:53:18;7.93;;;5.68;;
48207;SDS011;33997;53.278;9.708;2023-04-24T07:55:43;7.22;;;5.40;;
48207;SDS011;33997;53.278;9.708;2023-04-24T07:58:09;8.13;;;6.28;;
48207;SDS011;33997;53.278;9.708;2023-04-24T08:00:34;9.13;;;6.40;;
48207;SDS011;33997;53.278;9.708;2023-04-24T08:03:00;7.68;;;5.78;;
48207;SDS011;33997;53.278;9.708;2023-04-24T08:05:26;8.10;;;6.00;;
48207;SDS011;33997;53.278;9.708;2023-04-24T08:07:53;8.23;;;6.18;;
48207;SDS011;33997;53.278;9.708;2023-04-24T08:10:19;7.25;;;5.80;;
48207;SDS011;33997;53.278;9.708;2023-04-24T08:12:46;7.38;;;5.22;;
48207;SDS011;33997;53.278;9.708;2023-04-24T08:15:11;7.68;;;5.80;;
48207;SDS011;33997;53.278;9.708;2023-04-24T08:17:36;9.02;;;5.18;;
48207;SDS011;33997;53.278;9.708;2023-04-24T08:20:02;7.78;;;5.40;;
48207;SDS011;33997;53.278;9.708;2023-04-24T08:22:30;6.82;;;5.03;;
48207;SDS011;33997;53.278;9.708;2023-04-24T08:24:55;6.80;;;4.68;;
48207;SDS011;33997;53.278;9.708;2023-04-24T08:27:22;7.22;;;5.03;;
48207;SDS011;33997;53.278;9.708;2023-04-24T08:29:52;7.15;;;4.63;;
48207;SDS011;33997;53.278;9.708;2023-04-24T08:32:18;8.02;;;5.30;;
48207;SDS011;33997;53.278;9.708;2023-04-24T08:34:44;8.13;;;4.85;;
48207;SDS011;33997;53.278;9.708;2023-04-24T08:37:10;10.30;;;5.43;;
48207;SDS011;33997;53.278;9.708;2023-04-24T08:39:36;7.30;;;5.70;;
48207;SDS011;33997;53.278;9.708;2023-04-24T08:42:01;7.93;;;4.75;;
48207;SDS011;33997;53.278;9.708;2023-04-24T08:44:31;8.48;;;5.80;;
48207;SDS011;33997;53.278;9.708;2023-04-24T08:46:57;10.93;;;5.68;;
48207;SDS011;33997;53.278;9.708;2023-04-24T08:49:23;8.52;;;5.47;;
48207;SDS011;33997;53.278;9.708;2023-04-24T08:51:50;7.43;;;5.38;;
48207;SDS011;33997;53.278;9.708;2023-04-24T08:54:17;9.35;;;5.53;;
48207;SDS011;33997;53.278;9.708;2023-04-24T08:56:43;9.70;;;5.75;;
48207;SDS011;33997;53.278;9.708;2023-04-24T08:59:09;8.85;;;5.68;;
48207;SDS011;33997;53.278;9.708;2023-04-24T09:01:36;8.00;;;6.03;;
48207;SDS011;33997;53.278;9.708;2023-04-24T09:04:03;8.52;;;6.10;;
48207;SDS011;33997;53.278;9.708;2023-04-24T09:06:28;7.82;;;5.90;;
48207;SDS011;33997;53.278;9.708;2023-04-24T09:08:57;7.63;;;6.65;;
48207;SDS011;33997;53.278;9.708;2023-04-24T09:11:28;8.93;;;5.65;;
48207;SDS011;33997;53.278;9.708;2023-04-24T09:13:55;8.25;;;6.32;;
48207;SDS011;33997;53.278;9.708;2023-04-24T09:16:21;10.68;;;6.72;;
48207;SDS011;33997;53.278;9.708;2023-04-24T09:18:49;9.65;;;6.97;;
48207;SDS011;33997;53.278;9.708;2023-04-24T09:21:15;11.15;;;7.53;;
48207;SDS011;33997;53.278;9.708;2023-04-24T09:23:40;10.63;;;7.88;;
48207;SDS011;33997;53.278;9.708;2023-04-24T09:26:06;11.70;;;7.75;;
48207;SDS011;33997;53.278;9.708;2023-04-24T09:28:38;11.77;;;8.13;;
48207;SDS011;33997;53.278;9.708;2023-04-24T09:31:06;13.38;;;7.97;;
48207;SDS011;33997;53.278;9.708;2023-04-24T09:33:33;13.50;;;8.18;;
48207;SDS011;33997;53.278;9.708;2023-04-24T09:35:59;11.30;;;8.25;;
48207;SDS011;33997;53.278;9.708;2023-04-24T09:38:38;11.80;;;8.80;;
48207;SDS011;33997;53.278;9.708;2023-04-24T09:41:07;13.07;;;9.13;;
48207;SDS011;33997;53.278;9.708;2023-04-24T09:43:38;15.05;;;9.07;;
48207;SDS011;33997;53.278;9.708;2023-04-24T09:46:07;13.52;;;8.90;;
48207;SDS011;33997;53.278;9.708;2023-04-24T09:48:35;12.75;;;9.23;;
48207;SDS011;33997;53.278;9.708;2023-04-24T09:51:02;12.65;;;9.77;;
48207;SDS011;33997;53.278;9.708;2023-04-24T09:53:31;13.15;;;9.57;;
48207;SDS011;33997;53.278;9.708;2023-04-24T09:56:02;16.77;;;9.88;;
48207;SDS011;33997;53.278;9.708;2023-04-24T09:58:31;15.75;;;10.02;;
48207;SDS011;33997;53.278;9.708;2023-04-24T10:00:57;12.80;;;9.02;;
48207;SDS011;33997;53.278;9.708;2023-04-24T10:03:25;13.55;;;9.27;;
48207;SDS011;33997;53.278;9.708;2023-04-24T10:05:54;14.13;;;9.43;;
48207;SDS011;33997;53.278;9.708;2023-04-24T10:08:24;14.75;;;9.52;;
48207;SDS011;33997;53.278;9.708;2023-04-24T10:10:50;12.07;;;9.25;;
48207;SDS011;33997;53.278;9.708;2023-04-24T10:13:15;14.95;;;9.88;;
48207;SDS011;33997;53.278;9.708;2023-04-24T10:15:41;13.02;;;9.40;;
48207;SDS011;33997;53.278;9.708;2023-04-24T10:18:07;13.40;;;8.45;;
48207;SDS011;33997;53.278;9.708;2023-04-24T10:20:34;12.30;;;9.25;;
48207;SDS011;33997;53.278;9.708;2023-04-24T10:23:02;13.80;;;8.50;;
48207;SDS011;33997;53.278;9.708;2023-04-24T10:25:29;11.48;;;9.00;;
48207;SDS011;33997;53.278;9.708;2023-04-24T10:27:56;13.40;;;9.48;;
48207;SDS011;33997;53.278;9.708;2023-04-24T10:30:25;15.10;;;9.23;;
48207;SDS011;33997;53.278;9.708;2023-04-24T10:32:51;10.93;;;8.98;;
48207;SDS011;33997;53.278;9.708;2023-04-24T10:35:17;12.05;;;8.15;;
48207;SDS011;33997;53.278;9.708;2023-04-24T10:40:32;11.20;;;8.68;;
48207;SDS011;33997;53.278;9.708;2023-04-24T10:42:59;11.48;;;8.50;;
48207;SDS011;33997;53.278;9.708;2023-04-24T10:45:27;10.73;;;7.85;;
48207;SDS011;33997;53.278;9.708;2023-04-24T10:47:57;14.15;;;8.43;;
48207;SDS011;33997;53.278;9.708;2023-04-24T10:50:26;12.70;;;7.95;;
48207;SDS011;33997;53.278;9.708;2023-04-24T10:53:07;10.50;;;7.82;;
48207;SDS011;33997;53.278;9.708;2023-04-24T10:55:41;9.98;;;7.22;;
48207;SDS011;33997;53.278;9.708;2023-04-24T10:58:15;8.75;;;6.35;;
48207;SDS011;33997;53.278;9.708;2023-04-24T11:00:42;11.73;;;6.57;;
48207;SDS011;33997;53.278;9.708;2023-04-24T11:03:22;9.98;;;7.22;;
48207;SDS011;33997;53.278;9.708;2023-04-24T11:05:50;7.57;;;6.40;;
48207;SDS011;33997;53.278;9.708;2023-04-24T11:11:13;8.57;;;6.57;;
48207;SDS011;33997;53.278;9.708;2023-04-24T11:16:31;8.38;;;5.85;;
48207;SDS011;33997;53.278;9.708;2023-04-24T11:24:32;8.27;;;5.85;;
48207;SDS011;33997;53.278;9.708;2023-04-24T11:26:58;8.18;;;5.90;;
48207;SDS011;33997;53.278;9.708;2023-04-24T11:34:50;8.13;;;5.35;;
48207;SDS011;33997;53.278;9.708;2023-04-24T11:37:39;8.90;;;5.40;;
48207;SDS011;33997;53.278;9.708;2023-04-24T11:40:07;8.73;;;6.15;;
48207;SDS011;33997;53.278;9.708;2023-04-24T11:42:37;8.90;;;6.18;;
48207;SDS011;33997;53.278;9.708;2023-04-24T11:45:07;7.83;;;5.77;;
48207;SDS011;33997;53.278;9.708;2023-04-24T11:47:37;7.55;;;4.80;;
48207;SDS011;33997;53.278;9.708;2023-04-24T11:50:04;7.55;;;5.70;;
48207;SDS011;33997;53.278;9.708;2023-04-24T11:52:31;7.63;;;5.55;;
48207;SDS011;33997;53.278;9.708;2023-04-24T11:55:01;7.65;;;5.28;;
48207;SDS011;33997;53.278;9.708;2023-04-24T11:57:27;8.45;;;5.13;;
48207;SDS011;33997;53.278;9.708;2023-04-24T11:59:58;8.43;;;5.32;;
48207;SDS011;33997;53.278;9.708;2023-04-24T12:02:24;7.10;;;5.50;;
48207;SDS011;33997;53.278;9.708;2023-04-24T12:04:52;7.05;;;5.10;;
48207;SDS011;33997;53.278;9.708;2023-04-24T12:07:18;9.30;;;5.63;;
48207;SDS011;33997;53.278;9.708;2023-04-24T12:09:45;6.50;;;4.90;;
48207;SDS011;33997;53.278;9.708;2023-04-24T12:12:12;6.50;;;4.97;;
48207;SDS011;33997;53.278;9.708;2023-04-24T12:14:58;7.32;;;4.40;;
48207;SDS011;33997;53.278;9.708;2023-04-24T12:17:25;7.85;;;5.35;;
48207;SDS011;33997;53.278;9.708;2023-04-24T12:19:51;7.50;;;4.53;;
48207;SDS011;33997;53.278;9.708;2023-04-24T12:22:18;6.93;;;5.03;;
48207;SDS011;33997;53.278;9.708;2023-04-24T12:25:17;7.72;;;4.88;;
48207;SDS011;33997;53.278;9.708;2023-04-24T12:27:35;6.68;;;4.57;;
48207;SDS011;33997;53.278;9.708;2023-04-24T12:30:02;8.38;;;4.68;;
48207;SDS011;33997;53.278;9.708;2023-04-24T12:32:30;6.43;;;4.28;;
48207;SDS011;33997;53.278;9.708;2023-04-24T12:34:56;7.10;;;4.07;;
48207;SDS011;33997;53.278;9.708;2023-04-24T12:37:23;4.50;;;3.35;;
48207;SDS011;33997;53.278;9.708;2023-04-24T12:39:59;4.60;;;3.15;;
48207;SDS011;33997;53.278;9.708;2023-04-24T12:42:28;6.05;;;3.58;;
48207;SDS011;33997;53.278;9.708;2023-04-24T12:45:04;4.35;;;3.25;;
48207;SDS011;33997;53.278;9.708;2023-04-24T12:47:31;4.75;;;3.20;;
48207;SDS011;33997;53.278;9.708;2023-04-24T12:49:58;5.25;;;3.33;;
48207;SDS011;33997;53.278;9.708;2023-04-24T12:52:24;4.60;;;3.42;;
48207;SDS011;33997;53.278;9.708;2023-04-24T12:54:55;4.57;;;3.40;;
48207;SDS011;33997;53.278;9.708;2023-04-24T12:57:22;5.73;;;3.93;;
48207;SDS011;33997;53.278;9.708;2023-04-24T12:59:48;5.75;;;4.13;;
48207;SDS011;33997;53.278;9.708;2023-04-24T13:02:13;6.30;;;4.28;;
48207;SDS011;33997;53.278;9.708;2023-04-24T13:04:42;6.72;;;4.35;;
48207;SDS011;33997;53.278;9.708;2023-04-24T13:07:11;6.68;;;4.30;;
48207;SDS011;33997;53.278;9.708;2023-04-24T13:09:38;5.68;;;4.32;;
48207;SDS011;33997;53.278;9.708;2023-04-24T13:12:04;7.28;;;4.40;;
48207;SDS011;33997;53.278;9.708;2023-04-24T13:14:33;5.80;;;4.50;;
48207;SDS011;33997;53.278;9.708;2023-04-24T13:16:58;6.97;;;4.15;;
48207;SDS011;33997;53.278;9.708;2023-04-24T13:19:24;6.00;;;3.95;;
48207;SDS011;33997;53.278;9.708;2023-04-24T13:21:51;6.20;;;4.40;;
48207;SDS011;33997;53.278;9.708;2023-04-24T13:24:16;4.72;;;3.65;;
48207;SDS011;33997;53.278;9.708;2023-04-24T13:26:42;5.25;;;3.70;;
48207;SDS011;33997;53.278;9.708;2023-04-24T13:29:08;5.88;;;4.00;;
48207;SDS011;33997;53.278;9.708;2023-04-24T13:31:34;5.18;;;3.67;;
48207;SDS011;33997;53.278;9.708;2023-04-24T13:34:00;4.03;;;3.05;;
48207;SDS011;33997;53.278;9.708;2023-04-24T13:36:25;5.35;;;3.67;;
48207;SDS011;33997;53.278;9.708;2023-04-24T13:38:51;5.07;;;3.35;;
48207;SDS011;33997;53.278;9.708;2023-04-24T13:41:17;4.60;;;3.20;;
48207;SDS011;33997;53.278;9.708;2023-04-24T13:43:42;4.25;;;3.03;;
48207;SDS011;33997;53.278;9.708;2023-04-24T13:46:08;3.97;;;2.97;;
48207;SDS011;33997;53.278;9.708;2023-04-24T13:48:33;4.07;;;2.58;;
48207;SDS011;33997;53.278;9.708;2023-04-24T13:50:59;5.10;;;3.10;;
48207;SDS011;33997;53.278;9.708;2023-04-24T13:53:25;4.25;;;2.92;;
48207;SDS011;33997;53.278;9.708;2023-04-24T13:55:50;4.30;;;3.03;;
48207;SDS011;33997;53.278;9.708;2023-04-24T13:58:16;5.22;;;2.70;;
48207;SDS011;33997;53.278;9.708;2023-04-24T14:00:41;5.00;;;3.13;;
48207;SDS011;33997;53.278;9.708;2023-04-24T14:03:07;4.30;;;2.97;;
48207;SDS011;33997;53.278;9.708;2023-04-24T14:05:32;3.40;;;2.53;;
48207;SDS011;33997;53.278;9.708;2023-04-24T14:07:58;3.05;;;2.10;;
48207;SDS011;33997;53.278;9.708;2023-04-24T14:10:23;3.42;;;2.40;;
48207;SDS011;33997;53.278;9.708;2023-04-24T14:12:49;3.58;;;2.70;;
48207;SDS011;33997;53.278;9.708;2023-04-24T14:15:15;3.63;;;2.30;;
48207;SDS011;33997;53.278;9.708;2023-04-24T14:17:41;4.05;;;2.67;;
48207;SDS011;33997;53.278;9.708;2023-04-24T14:20:07;3.67;;;2.75;;
48207;SDS011;33997;53.278;9.708;2023-04-24T14:22:33;3.08;;;2.58;;
48207;SDS011;33997;53.278;9.708;2023-04-24T14:24:59;3.15;;;2.30;;
48207;SDS011;33997;53.278;9.708;2023-04-24T14:27:25;3.95;;;2.65;;
48207;SDS011;33997;53.278;9.708;2023-04-24T14:29:51;3.38;;;2.38;;
48207;SDS011;33997;53.278;9.708;2023-04-24T14:32:17;3.90;;;2.65;;
48207;SDS011;33997;53.278;9.708;2023-04-24T14:34:43;4.05;;;2.47;;
48207;SDS011;33997;53.278;9.708;2023-04-24T14:37:08;3.50;;;2.40;;
48207;SDS011;33997;53.278;9.708;2023-04-24T14:39:34;3.97;;;3.00;;
48207;SDS011;33997;53.278;9.708;2023-04-24T14:41:59;5.28;;;3.20;;
48207;SDS011;33997;53.278;9.708;2023-04-24T14:44:26;4.97;;;3.45;;
48207;SDS011;33997;53.278;9.708;2023-04-24T14:46:51;7.25;;;3.75;;
48207;SDS011;33997;53.278;9.708;2023-04-24T14:49:17;6.22;;;4.22;;
48207;SDS011;33997;53.278;9.708;2023-04-24T14:51:42;6.65;;;4.97;;
48207;SDS011;33997;53.278;9.708;2023-04-24T14:54:08;8.65;;;4.68;;
48207;SDS011;33997;53.278;9.708;2023-04-24T14:56:33;6.88;;;4.63;;
48207;SDS011;33997;53.278;9.708;2023-04-24T14:58:59;7.00;;;5.05;;
48207;SDS011;33997;53.278;9.708;2023-04-24T15:01:24;7.05;;;4.55;;